createdAt,value
2018-08-06T00:00:30.022Z,82.56
2018-08-06T00:01:30.219Z,83.14
2018-08-06T00:02:30.399Z,83.52
2018-08-06T00:03:30.585Z,83.52
2018-08-06T00:04:30.883Z,83.33
2018-08-06T00:05:30.998Z,83.91
2018-08-06T00:06:31.201Z,84.00
2018-08-06T00:07:31.386Z,84.91
2018-08-06T00:08:31.581Z,84.91
2018-08-06T00:09:31.785Z,84.44
2018-08-06T00:10:31.954Z,84.63
2018-08-06T00:11:32.130Z,84.63
2018-08-06T00:12:32.310Z,84.63
2018-08-06T00:13:32.495Z,84.72
2018-08-06T00:14:32.701Z,84.53
2018-08-06T00:15:32.900Z,84.63
2018-08-06T00:16:33.087Z,84.63
2018-08-06T00:17:33.291Z,84.82
2018-08-06T00:18:33.475Z,84.53
2018-08-06T00:19:33.755Z,84.82
2018-08-06T00:20:33.836Z,84.44
2018-08-06T00:21:34.025Z,84.91
2018-08-06T00:22:34.206Z,84.91
2018-08-06T00:23:34.376Z,85.78
2018-08-06T00:24:34.622Z,86.25
2018-08-06T00:25:34.775Z,85.97
2018-08-06T00:26:34.956Z,85.58
2018-08-06T00:27:35.128Z,85.45
2018-08-06T00:28:35.319Z,85.88
2018-08-06T00:29:35.575Z,86.35
2018-08-06T00:30:35.675Z,86.21
2018-08-06T00:31:35.866Z,86.25
2018-08-06T00:32:36.611Z,85.93
2018-08-06T00:33:36.285Z,85.74
2018-08-06T00:34:36.483Z,85.83
2018-08-06T00:35:36.659Z,85.45
2018-08-06T00:36:36.837Z,85.25
2018-08-06T00:37:37.013Z,86.07
2018-08-06T00:38:37.202Z,86.31
2018-08-06T00:39:37.396Z,86.31
2018-08-06T00:40:37.573Z,86.02
2018-08-06T00:41:37.754Z,86.02
2018-08-06T00:42:37.942Z,86.31
2018-08-06T00:43:38.113Z,86.02
2018-08-06T00:44:38.291Z,86.41
2018-08-06T00:45:38.481Z,86.41
2018-08-06T00:46:38.664Z,86.21
2018-08-06T00:47:38.839Z,85.93
2018-08-06T00:48:39.022Z,86.12
2018-08-06T00:49:39.199Z,86.41
2018-08-06T00:50:39.376Z,86.88
2018-08-06T00:51:39.559Z,86.79
2018-08-06T00:52:39.758Z,86.50
2018-08-06T00:53:39.931Z,86.69
2018-08-06T00:54:40.119Z,86.79
2018-08-06T00:55:40.311Z,87.08
2018-08-06T00:56:40.503Z,86.60
2018-08-06T00:57:40.678Z,87.08
2018-08-06T00:58:40.872Z,86.69
2018-08-06T00:59:41.029Z,87.08
2018-08-06T01:00:41.203Z,86.98
2018-08-06T01:01:41.404Z,86.65
2018-08-06T01:02:41.596Z,87.08
2018-08-06T01:03:41.770Z,87.41
2018-08-06T01:04:41.992Z,87.32
2018-08-06T01:05:42.162Z,87.80
2018-08-06T01:06:42.357Z,87.90
2018-08-06T01:07:42.535Z,88.18
2018-08-06T01:08:42.708Z,87.70
2018-08-06T01:09:42.891Z,87.70
2018-08-06T01:10:43.076Z,87.80
2018-08-06T01:11:43.260Z,87.80
2018-08-06T01:12:43.436Z,88.09
2018-08-06T01:13:43.664Z,88.37
2018-08-06T01:14:43.859Z,88.47
2018-08-06T01:15:44.044Z,88.66
2018-08-06T01:16:44.219Z,88.28
2018-08-06T01:17:44.425Z,87.99
2018-08-06T01:18:44.610Z,87.99
2018-08-06T01:19:44.774Z,87.90
2018-08-06T01:20:44.954Z,87.90
2018-08-06T01:21:45.140Z,87.90
2018-08-06T01:22:45.319Z,87.99
2018-08-06T01:23:45.516Z,88.37
2018-08-06T01:24:45.694Z,88.66
2018-08-06T01:25:45.870Z,88.09
2018-08-06T01:26:46.052Z,88.76
2018-08-06T01:27:46.223Z,89.23
2018-08-06T01:28:46.398Z,89.14
2018-08-06T01:29:46.581Z,89.14
2018-08-06T01:30:46.760Z,89.04
2018-08-06T01:31:46.936Z,89.04
2018-08-06T01:32:47.118Z,88.95
2018-08-06T01:33:47.294Z,88.85
2018-08-06T01:34:47.470Z,89.62
2018-08-06T01:35:47.661Z,89.52
2018-08-06T01:36:47.822Z,89.62
2018-08-06T01:37:47.993Z,89.33
2018-08-06T01:38:48.162Z,89.14
2018-08-06T01:39:48.355Z,89.14
2018-08-06T01:40:48.538Z,89.23
2018-08-06T01:41:48.725Z,89.04
2018-08-06T01:42:48.899Z,89.29
2018-08-06T01:43:49.112Z,89.62
2018-08-06T01:44:49.256Z,89.38
2018-08-06T01:45:49.450Z,89.58
2018-08-06T01:46:49.628Z,89.48
2018-08-06T01:47:49.803Z,89.38
2018-08-06T01:50:33.188Z,89.86
2018-08-06T01:51:33.365Z,89.48
2018-08-06T01:52:33.547Z,90.24
2018-08-06T01:53:33.733Z,89.67
2018-08-06T01:54:33.918Z,90.05
2018-08-06T01:55:34.097Z,89.86
2018-08-06T01:56:34.272Z,90.24
2018-08-06T01:57:34.486Z,91.01
2018-08-06T01:58:34.635Z,90.53
2018-08-06T01:59:34.822Z,90.53
2018-08-06T02:00:35.003Z,90.53
2018-08-06T02:01:35.190Z,90.44
2018-08-06T02:02:35.379Z,91.01
2018-08-06T02:03:35.576Z,90.58
2018-08-06T02:04:35.747Z,90.58
2018-08-06T02:05:35.925Z,90.63
2018-08-06T02:06:36.147Z,91.06
2018-08-06T02:07:36.341Z,90.72
2018-08-06T02:08:36.524Z,90.63
2018-08-06T02:09:36.710Z,91.16
2018-08-06T02:10:36.889Z,90.77
2018-08-06T02:11:37.070Z,91.06
2018-08-06T02:12:37.245Z,90.96
2018-08-06T02:13:37.423Z,91.16
2018-08-06T02:14:37.589Z,91.53
2018-08-06T02:15:37.759Z,91.73
2018-08-06T02:16:37.956Z,91.92
2018-08-06T02:17:38.133Z,91.73
2018-08-06T02:18:38.309Z,91.53
2018-08-06T02:19:38.491Z,92.02
2018-08-06T02:20:38.669Z,91.92
2018-08-06T02:21:38.846Z,91.53
2018-08-06T02:22:39.027Z,92.11
2018-08-06T02:23:39.203Z,91.92
2018-08-06T02:24:39.410Z,92.07
2018-08-06T02:25:39.585Z,92.07
2018-08-06T02:26:39.754Z,91.88
2018-08-06T02:27:39.993Z,92.45
2018-08-06T02:28:40.174Z,92.74
2018-08-06T02:29:40.377Z,92.78
2018-08-06T02:30:40.537Z,92.93
2018-08-06T02:31:40.711Z,92.54
2018-08-06T02:32:40.898Z,92.25
2018-08-06T02:33:41.089Z,92.78
2018-08-06T02:34:41.279Z,92.11
2018-08-06T02:35:41.473Z,92.30
2018-08-06T02:36:41.704Z,92.25
2018-08-06T02:37:41.751Z,92.40
2018-08-06T02:38:41.932Z,92.30
2018-08-06T02:39:42.116Z,91.97
2018-08-06T02:40:42.310Z,92.07
2018-08-06T02:41:42.496Z,92.74
2018-08-06T02:42:42.673Z,92.45
2018-08-06T02:43:42.833Z,92.83
2018-08-06T02:44:43.020Z,92.54
2018-08-06T02:45:43.203Z,92.64
2018-08-06T02:46:43.380Z,92.74
2018-08-06T02:47:43.553Z,92.54
2018-08-06T02:48:43.725Z,92.83
2018-08-06T02:49:43.919Z,93.02
2018-08-06T02:50:44.109Z,92.74
2018-08-06T02:51:44.285Z,93.12
2018-08-06T02:52:44.467Z,92.83
2018-08-06T02:53:44.647Z,93.60
2018-08-06T02:54:44.832Z,93.60
2018-08-06T02:55:45.015Z,93.31
2018-08-06T02:56:45.185Z,93.60
2018-08-06T02:57:45.367Z,93.40
2018-08-06T02:58:45.551Z,93.60
2018-08-06T02:59:45.725Z,93.60
2018-08-06T03:00:45.898Z,93.21
2018-08-06T03:01:46.071Z,93.79
2018-08-06T03:02:46.266Z,93.60
2018-08-06T03:03:46.431Z,93.60
2018-08-06T03:04:46.609Z,93.60
2018-08-06T03:05:46.793Z,93.69
2018-08-06T03:06:46.985Z,93.50
2018-08-06T03:07:47.163Z,93.98
2018-08-06T03:08:47.352Z,93.88
2018-08-06T03:09:47.529Z,93.79
2018-08-06T03:10:47.703Z,93.60
2018-08-06T03:11:47.900Z,94.07
2018-08-06T03:12:48.086Z,94.07
2018-08-06T03:13:48.266Z,94.17
2018-08-06T03:14:48.464Z,93.50
2018-08-06T03:15:48.625Z,93.88
2018-08-06T03:16:48.808Z,94.36
2018-08-06T03:17:49.021Z,94.17
2018-08-06T03:18:49.194Z,94.26
2018-08-06T03:19:49.380Z,94.07
2018-08-06T03:20:49.558Z,94.55
2018-08-06T03:21:49.750Z,94.65
2018-08-06T03:22:49.940Z,94.55
2018-08-06T03:23:50.100Z,94.46
2018-08-06T03:24:50.295Z,94.41
2018-08-06T03:25:50.479Z,94.51
2018-08-06T03:26:50.665Z,94.98
2018-08-06T03:27:50.844Z,95.36
2018-08-06T03:28:51.017Z,95.07
2018-08-06T03:29:51.202Z,95.27
2018-08-06T03:30:51.379Z,95.17
2018-08-06T03:31:51.561Z,95.17
2018-08-06T03:32:51.728Z,95.75
2018-08-06T03:33:51.912Z,95.94
2018-08-06T03:34:52.097Z,96.13
2018-08-06T03:35:52.283Z,96.03
2018-08-06T03:38:35.651Z,95.36
2018-08-06T03:39:35.823Z,96.22
2018-08-06T03:40:36.039Z,96.03
2018-08-06T03:41:37.085Z,95.94
2018-08-06T03:42:36.425Z,96.03
2018-08-06T03:43:36.634Z,96.70
2018-08-06T03:44:36.816Z,96.70
2018-08-06T03:45:37.045Z,96.89
2018-08-06T03:46:37.208Z,97.08
2018-08-06T03:47:37.394Z,97.18
2018-08-06T03:48:37.606Z,97.08
2018-08-06T03:49:37.790Z,97.08
2018-08-06T03:50:37.980Z,96.99
2018-08-06T03:51:38.134Z,97.08
2018-08-06T03:52:38.362Z,96.99
2018-08-06T03:53:38.487Z,97.08
2018-08-06T03:54:38.680Z,97.18
2018-08-06T03:55:38.863Z,96.89
2018-08-06T03:56:39.041Z,96.61
2018-08-06T03:57:39.248Z,97.08
2018-08-06T03:58:39.437Z,96.70
2018-08-06T03:59:39.570Z,96.99
2018-08-06T04:00:39.764Z,96.99
2018-08-06T04:01:39.948Z,96.80
2018-08-06T04:02:40.132Z,96.80
2018-08-06T04:03:40.304Z,96.80
2018-08-06T04:04:40.509Z,96.80
2018-08-06T04:05:40.694Z,96.70
2018-08-06T04:06:40.862Z,97.08
2018-08-06T04:07:41.041Z,96.13
2018-08-06T04:08:41.208Z,96.42
2018-08-06T04:09:41.449Z,96.13
2018-08-06T04:10:41.626Z,96.03
2018-08-06T04:11:41.810Z,96.51
2018-08-06T04:12:42.006Z,97.08
2018-08-06T04:13:42.209Z,96.70
2018-08-06T04:14:42.350Z,96.80
2018-08-06T04:15:42.547Z,96.80
2018-08-06T04:16:42.752Z,96.70
2018-08-06T04:17:42.954Z,97.37
2018-08-06T04:18:43.150Z,97.37
2018-08-06T04:19:43.338Z,96.99
2018-08-06T04:20:43.519Z,97.08
2018-08-06T04:21:43.709Z,97.37
2018-08-06T04:22:43.901Z,97.08
2018-08-06T04:23:44.076Z,96.61
2018-08-06T04:24:44.265Z,96.89
2018-08-06T04:25:44.446Z,96.61
2018-08-06T04:26:44.629Z,96.99
2018-08-06T04:27:44.794Z,96.89
2018-08-06T04:28:44.984Z,97.18
2018-08-06T04:29:45.167Z,96.42
2018-08-06T04:30:45.351Z,96.03
2018-08-06T04:31:45.526Z,96.22
2018-08-06T04:32:45.731Z,96.13
2018-08-06T04:33:45.900Z,96.03
2018-08-06T04:34:46.079Z,96.08
2018-08-06T04:35:46.246Z,95.51
2018-08-06T04:36:46.423Z,95.65
2018-08-06T04:37:46.650Z,95.75
2018-08-06T04:38:46.786Z,95.61
2018-08-06T04:39:46.967Z,96.47
2018-08-06T04:40:47.152Z,96.47
2018-08-06T04:41:47.377Z,96.18
2018-08-06T04:42:47.527Z,96.27
2018-08-06T04:43:47.694Z,95.98
2018-08-06T04:44:47.886Z,95.79
2018-08-06T04:45:48.070Z,95.98
2018-08-06T04:46:48.244Z,95.70
2018-08-06T04:47:48.432Z,95.12
2018-08-06T04:48:48.605Z,94.93
2018-08-06T04:49:48.836Z,95.03
2018-08-06T04:50:49.005Z,94.46
2018-08-06T04:51:49.238Z,95.12
2018-08-06T04:52:49.435Z,94.60
2018-08-06T04:53:49.611Z,93.79
2018-08-06T04:54:49.792Z,92.58
2018-08-06T04:55:49.976Z,91.49
2018-08-06T04:56:50.164Z,89.23
2018-08-06T04:57:50.356Z,87.59
2018-08-06T04:58:50.543Z,85.71
2018-08-06T04:59:50.711Z,83.93
2018-08-06T05:00:50.899Z,82.92
2018-08-06T05:01:51.079Z,80.65
2018-08-06T05:02:51.281Z,79.69
2018-08-06T05:05:34.670Z,76.01
2018-08-06T05:06:36.635Z,75.57
2018-08-06T05:07:35.583Z,74.07
2018-08-06T05:08:35.251Z,73.49
2018-08-06T05:09:35.465Z,73.20
2018-08-06T05:10:35.663Z,72.53
2018-08-06T05:11:35.849Z,73.01
2018-08-06T05:12:36.071Z,72.47
2018-08-06T05:13:36.263Z,71.98
2018-08-06T05:14:36.406Z,71.89
2018-08-06T05:15:36.592Z,71.15
2018-08-06T05:16:36.782Z,70.38
2018-08-06T05:17:36.987Z,70.86
2018-08-06T05:18:37.167Z,69.71
2018-08-06T05:19:37.355Z,69.71
2018-08-06T05:20:37.543Z,69.90
2018-08-06T05:21:37.736Z,69.61
2018-08-06T05:22:37.915Z,70.09
2018-08-06T05:23:38.105Z,69.80
2018-08-06T05:24:38.334Z,69.23
2018-08-06T05:25:38.488Z,69.13
2018-08-06T05:26:38.671Z,69.13
2018-08-06T05:27:38.857Z,69.13
2018-08-06T05:28:39.079Z,68.45
2018-08-06T05:29:39.222Z,69.35
2018-08-06T05:30:39.446Z,69.42
2018-08-06T05:31:39.627Z,69.07
2018-08-06T05:32:39.811Z,67.85
2018-08-06T05:33:40.004Z,68.49
2018-08-06T05:34:40.188Z,68.16
2018-08-06T05:35:40.372Z,69.19
2018-08-06T05:36:40.560Z,70.92
2018-08-06T05:37:40.757Z,69.80
2018-08-06T05:38:40.953Z,69.07
2018-08-06T05:39:41.147Z,68.49
2018-08-06T05:40:41.343Z,68.01
2018-08-06T05:41:41.540Z,67.62
2018-08-06T05:42:41.728Z,67.43
2018-08-06T05:43:41.912Z,67.23
2018-08-06T05:44:42.099Z,67.91
2018-08-06T05:45:42.291Z,68.65
2018-08-06T05:46:42.486Z,69.87
2018-08-06T05:47:42.692Z,70.98
2018-08-06T05:48:42.858Z,72.26
2018-08-06T05:49:43.077Z,73.96
2018-08-06T05:50:43.268Z,75.46
2018-08-06T05:51:43.463Z,76.32
2018-08-06T05:52:43.668Z,76.61
2018-08-06T05:53:43.851Z,77.15
2018-08-06T05:54:44.037Z,78.65
2018-08-06T05:55:44.230Z,80.86
2018-08-06T05:56:44.425Z,80.86
2018-08-06T05:57:44.622Z,79.99
2018-08-06T05:58:44.824Z,80.66
2018-08-06T05:59:45.015Z,80.96
2018-08-06T06:00:45.191Z,80.22
2018-08-06T06:01:45.381Z,78.92
2018-08-06T06:02:45.566Z,77.23
2018-08-06T06:03:45.757Z,76.11
2018-08-06T06:04:46.606Z,74.61
2018-08-06T06:05:46.165Z,73.30
2018-08-06T06:06:46.350Z,72.43
2018-08-06T06:07:46.526Z,71.15
2018-08-06T06:08:46.731Z,70.22
2018-08-06T06:09:46.932Z,69.61
2018-08-06T06:10:47.122Z,69.45
2018-08-06T06:11:47.304Z,68.91
2018-08-06T06:12:47.507Z,67.17
2018-08-06T06:13:47.762Z,65.47
2018-08-06T06:14:47.854Z,65.56
2018-08-06T06:15:48.044Z,64.98
2018-08-06T06:16:48.229Z,66.08
2018-08-06T06:17:48.412Z,64.34
2018-08-06T06:18:48.624Z,63.79
2018-08-06T06:19:48.843Z,63.66
2018-08-06T06:20:49.052Z,64.37
2018-08-06T06:21:49.241Z,63.79
2018-08-06T06:22:49.419Z,63.73
2018-08-06T06:23:49.616Z,61.72
2018-08-06T06:24:49.807Z,61.15
2018-08-06T06:25:50.030Z,60.59
2018-08-06T06:26:50.214Z,59.53
2018-08-06T06:27:50.432Z,59.31
2018-08-06T06:28:50.618Z,61.02
2018-08-06T06:29:50.820Z,61.98
2018-08-06T06:30:51.003Z,61.21
2018-08-06T06:31:51.219Z,61.79
2018-08-06T06:32:51.411Z,62.69
2018-08-06T06:33:51.595Z,61.36
2018-08-06T06:34:51.841Z,60.40
2018-08-06T06:35:51.982Z,60.11
2018-08-06T06:36:52.177Z,59.40
2018-08-06T06:37:52.377Z,60.40
2018-08-06T06:38:52.590Z,59.82
2018-08-06T06:39:52.760Z,59.33
2018-08-06T06:40:52.959Z,59.56
2018-08-06T06:41:53.151Z,60.53
2018-08-06T06:42:53.330Z,60.66
2018-08-06T06:43:53.511Z,60.43
2018-08-06T06:44:53.711Z,59.36
2018-08-06T06:45:53.908Z,58.59
2018-08-06T06:46:54.101Z,58.98
2018-08-06T06:47:54.290Z,58.95
2018-08-06T06:48:54.547Z,60.53
2018-08-06T06:49:54.672Z,61.54
2018-08-06T06:50:54.891Z,63.18
2018-08-06T06:51:55.089Z,63.53
2018-08-06T06:52:55.283Z,64.76
2018-08-06T06:53:55.483Z,66.49
2018-08-06T06:54:55.682Z,67.43
2018-08-06T06:55:55.864Z,67.33
2018-08-06T06:58:39.277Z,67.52
2018-08-06T06:59:39.462Z,68.10
2018-08-06T07:02:22.875Z,67.40
2018-08-06T07:03:23.067Z,66.82
2018-08-06T07:04:23.290Z,64.82
2018-08-06T07:05:24.295Z,63.69
2018-08-06T07:06:23.730Z,63.60
2018-08-06T07:07:23.848Z,63.40
2018-08-06T07:08:24.045Z,62.95
2018-08-06T07:09:24.217Z,61.89
2018-08-06T07:10:24.387Z,61.47
2018-08-06T07:11:24.630Z,62.89
2018-08-06T07:12:24.815Z,63.18
2018-08-06T07:13:25.009Z,62.73
2018-08-06T07:14:25.204Z,62.95
2018-08-06T07:15:25.389Z,61.18
2018-08-06T07:16:25.618Z,59.17
2018-08-06T07:17:25.810Z,58.81
2018-08-06T07:18:25.997Z,57.19
2018-08-06T07:19:26.224Z,56.23
2018-08-06T07:20:26.397Z,58.20
2018-08-06T07:21:26.608Z,58.33
2018-08-06T07:22:27.294Z,57.84
2018-08-06T07:23:27.004Z,56.97
2018-08-06T07:24:27.177Z,57.09
2018-08-06T07:25:27.366Z,56.15
2018-08-06T07:26:27.547Z,56.35
2018-08-06T07:27:27.753Z,55.60
2018-08-06T07:28:27.921Z,55.14
2018-08-06T07:29:28.167Z,54.36
2018-08-06T07:30:28.368Z,53.78
2018-08-06T07:31:28.555Z,53.20
2018-08-06T07:32:30.438Z,53.32
2018-08-06T07:33:28.907Z,53.30
2018-08-06T07:34:29.117Z,54.00
2018-08-06T07:35:29.311Z,54.10
2018-08-06T07:36:29.512Z,53.52
2018-08-06T07:37:29.698Z,53.61
2018-08-06T07:38:29.897Z,53.32
2018-08-06T07:39:30.118Z,53.52
2018-08-06T07:40:30.286Z,53.52
2018-08-06T07:41:30.475Z,54.00
2018-08-06T07:42:30.655Z,54.29
2018-08-06T07:45:14.085Z,53.49
2018-08-06T07:46:14.254Z,53.71
2018-08-06T07:47:14.466Z,54.44
2018-08-06T07:48:14.675Z,54.72
2018-08-06T07:49:14.845Z,54.92
2018-08-06T07:50:15.046Z,54.17
2018-08-06T07:51:15.222Z,54.10
2018-08-06T07:52:15.445Z,53.52
2018-08-06T07:53:15.598Z,53.42
2018-08-06T07:54:15.784Z,52.67
2018-08-06T07:55:15.995Z,53.03
2018-08-06T07:56:16.156Z,53.71
2018-08-06T07:57:16.344Z,52.57
2018-08-06T07:58:16.527Z,52.28
2018-08-06T07:59:16.723Z,53.71
2018-08-06T08:00:16.911Z,51.77
2018-08-06T08:01:17.106Z,52.35
2018-08-06T08:02:17.300Z,51.77
2018-08-06T08:03:17.489Z,52.55
2018-08-06T08:04:17.683Z,54.32
2018-08-06T08:05:17.874Z,53.13
2018-08-06T08:06:18.079Z,52.62
2018-08-06T08:07:18.283Z,53.52
2018-08-06T08:08:18.469Z,53.13
2018-08-06T08:09:18.657Z,52.25
2018-08-06T08:10:18.860Z,52.09
2018-08-06T08:11:19.075Z,53.74
2018-08-06T08:12:19.229Z,53.54
2018-08-06T08:13:19.418Z,54.39
2018-08-06T08:14:19.621Z,54.68
2018-08-06T08:15:19.802Z,53.64
2018-08-06T08:16:20.000Z,54.22
2018-08-06T08:17:20.989Z,53.97
2018-08-06T08:18:20.407Z,55.04
2018-08-06T08:19:20.628Z,55.96
2018-08-06T08:20:20.928Z,57.06
2018-08-06T08:21:20.960Z,56.18
2018-08-06T08:22:21.161Z,55.92
2018-08-06T08:23:21.352Z,54.27
2018-08-06T08:24:21.538Z,55.94
2018-08-06T08:25:21.713Z,55.46
2018-08-06T08:26:21.899Z,53.61
2018-08-06T08:27:22.089Z,53.20
2018-08-06T08:28:22.284Z,53.69
2018-08-06T08:29:22.479Z,53.42
2018-08-06T08:30:22.667Z,53.03
2018-08-06T08:31:22.855Z,52.94
2018-08-06T08:32:23.095Z,52.06
2018-08-06T08:33:23.302Z,52.25
2018-08-06T08:34:23.492Z,52.76
2018-08-06T08:35:23.698Z,51.70
2018-08-06T08:36:23.869Z,52.45
2018-08-06T08:37:24.065Z,53.83
2018-08-06T08:38:24.258Z,51.31
2018-08-06T08:39:24.447Z,51.38
2018-08-06T08:40:24.633Z,52.15
2018-08-06T08:41:24.822Z,54.22
2018-08-06T08:42:25.018Z,51.31
2018-08-06T08:43:25.217Z,51.79
2018-08-06T08:44:25.395Z,51.01
2018-08-06T08:45:25.656Z,50.34
2018-08-06T08:46:25.848Z,50.60
2018-08-06T08:47:26.039Z,51.09
2018-08-06T08:48:26.221Z,50.48
2018-08-06T08:49:26.414Z,51.28
2018-08-06T08:50:26.630Z,51.01
2018-08-06T08:51:26.885Z,50.95
2018-08-06T08:52:27.103Z,50.56
2018-08-06T08:53:27.223Z,49.68
2018-08-06T08:54:27.434Z,50.36
2018-08-06T08:55:27.616Z,50.95
2018-08-06T08:56:27.810Z,49.17
2018-08-06T08:57:27.990Z,49.37
2018-08-06T08:58:28.193Z,50.36
2018-08-06T08:59:28.366Z,49.39
2018-08-06T09:00:28.590Z,49.17
2018-08-06T09:01:28.799Z,50.04
2018-08-06T09:02:28.982Z,49.82
2018-08-06T09:03:29.185Z,49.56
2018-08-06T09:04:29.366Z,51.11
2018-08-06T09:05:29.567Z,56.77
2018-08-06T09:06:29.755Z,57.00
2018-08-06T09:07:29.945Z,49.12
2018-08-06T09:08:30.120Z,51.26
2018-08-06T09:09:30.328Z,50.19
2018-08-06T09:10:30.596Z,48.63
2018-08-06T09:11:30.671Z,48.75
2018-08-06T09:12:30.877Z,48.46
2018-08-06T09:13:31.071Z,48.93
2018-08-06T09:14:31.307Z,48.63
2018-08-06T09:15:31.495Z,48.61
2018-08-06T09:16:31.671Z,51.65
2018-08-06T09:17:31.875Z,51.17
2018-08-06T09:18:32.071Z,49.05
2018-08-06T09:19:32.249Z,48.17
2018-08-06T09:20:32.432Z,46.71
2018-08-06T09:21:32.619Z,47.49
2018-08-06T09:22:32.814Z,46.23
2018-08-06T09:23:33.004Z,46.03
2018-08-06T09:24:33.206Z,47.30
2018-08-06T09:25:33.395Z,46.20
2018-08-06T09:26:33.601Z,45.81
2018-08-06T09:27:33.774Z,46.01
2018-08-06T09:28:33.962Z,45.54
2018-08-06T09:29:34.143Z,44.96
2018-08-06T09:30:34.356Z,45.06
2018-08-06T09:31:34.528Z,45.25
2018-08-06T09:32:34.716Z,45.81
2018-08-06T09:33:34.921Z,45.91
2018-08-06T09:34:35.102Z,47.39
2018-08-06T09:35:35.319Z,48.07
2018-08-06T09:36:35.509Z,46.93
2018-08-06T09:37:35.697Z,46.54
2018-08-06T09:38:35.890Z,45.86
2018-08-06T09:39:36.081Z,48.10
2018-08-06T09:40:36.333Z,49.37
2018-08-06T09:41:36.476Z,45.39
2018-08-06T09:42:36.702Z,44.62
2018-08-06T09:43:36.878Z,45.98
2018-08-06T09:44:37.063Z,45.47
2018-08-06T09:45:37.282Z,50.75
2018-08-06T09:46:37.476Z,45.67
2018-08-06T09:47:37.669Z,50.24
2018-08-06T09:48:37.897Z,44.71
2018-08-06T09:49:38.045Z,46.08
2018-08-06T09:50:38.232Z,44.05
2018-08-06T09:51:38.428Z,43.78
2018-08-06T09:52:38.613Z,43.39
2018-08-06T09:53:38.811Z,42.61
2018-08-06T09:54:39.036Z,42.41
2018-08-06T09:55:39.231Z,43.18
2018-08-06T09:56:39.421Z,43.37
2018-08-06T09:57:39.609Z,43.74
2018-08-06T09:58:39.793Z,43.44
2018-08-06T09:59:39.991Z,43.74
2018-08-06T10:00:40.182Z,44.24
2018-08-06T10:01:40.377Z,45.12
2018-08-06T10:02:40.562Z,43.47
2018-08-06T10:03:40.790Z,43.08
2018-08-06T10:04:41.001Z,45.51
2018-08-06T10:05:41.289Z,43.85
2018-08-06T10:06:41.471Z,43.25
2018-08-06T10:07:41.566Z,43.54
2018-08-06T10:08:41.752Z,44.83
2018-08-06T10:09:41.945Z,43.54
2018-08-06T10:10:42.148Z,43.25
2018-08-06T10:11:42.327Z,43.66
2018-08-06T10:12:42.511Z,43.27
2018-08-06T10:13:42.715Z,43.10
2018-08-06T10:14:42.905Z,42.98
2018-08-06T10:15:43.075Z,42.30
2018-08-06T10:16:43.270Z,43.08
2018-08-06T10:17:43.446Z,43.37
2018-08-06T10:18:43.660Z,43.27
2018-08-06T10:19:43.958Z,43.25
2018-08-06T10:20:44.078Z,43.25
2018-08-06T10:21:44.267Z,43.74
2018-08-06T10:22:44.461Z,43.84
2018-08-06T10:23:44.693Z,44.23
2018-08-06T10:24:44.902Z,44.24
2018-08-06T10:25:45.099Z,43.18
2018-08-06T10:26:45.284Z,43.95
2018-08-06T10:27:45.472Z,44.03
2018-08-06T10:28:45.658Z,44.24
2018-08-06T10:29:45.844Z,43.37
2018-08-06T10:30:46.067Z,44.24
2018-08-06T10:31:46.250Z,43.27
2018-08-06T10:32:46.444Z,43.49
2018-08-06T10:33:46.627Z,42.88
2018-08-06T10:34:46.811Z,41.91
2018-08-06T10:35:46.992Z,41.83
2018-08-06T10:36:47.172Z,41.54
2018-08-06T10:37:47.360Z,41.54
2018-08-06T10:38:47.550Z,40.55
2018-08-06T10:39:47.751Z,40.66
2018-08-06T10:40:47.956Z,40.58
2018-08-06T10:41:48.183Z,40.08
2018-08-06T10:42:48.407Z,40.39
2018-08-06T10:43:48.619Z,40.08
2018-08-06T10:44:48.812Z,41.25
2018-08-06T10:45:48.994Z,42.24
2018-08-06T10:46:49.177Z,40.97
2018-08-06T10:47:49.386Z,40.60
2018-08-06T10:48:49.600Z,39.82
2018-08-06T10:49:49.791Z,39.82
2018-08-06T10:50:49.979Z,39.61
2018-08-06T10:51:50.173Z,40.09
2018-08-06T10:52:50.390Z,39.70
2018-08-06T10:53:50.567Z,39.59
2018-08-06T10:54:50.745Z,41.54
2018-08-06T10:55:50.952Z,40.17
2018-08-06T10:56:51.140Z,40.27
2018-08-06T10:57:51.332Z,40.52
2018-08-06T10:58:51.506Z,40.72
2018-08-06T10:59:51.708Z,40.35
2018-08-06T11:00:51.906Z,41.22
2018-08-06T11:01:52.095Z,40.56
2018-08-06T11:02:52.329Z,39.80
2018-08-06T11:03:52.469Z,40.70
2018-08-06T11:04:52.652Z,39.72
2018-08-06T11:05:52.831Z,39.43
2018-08-06T11:06:53.009Z,39.62
2018-08-06T11:07:53.199Z,39.62
2018-08-06T11:08:53.448Z,39.53
2018-08-06T11:09:53.575Z,39.72
2018-08-06T11:10:53.750Z,39.23
2018-08-06T11:11:53.986Z,38.45
2018-08-06T11:12:54.173Z,38.06
2018-08-06T11:13:54.387Z,39.26
2018-08-06T11:14:54.543Z,38.28
2018-08-06T11:15:54.836Z,37.99
2018-08-06T11:16:54.922Z,36.62
2018-08-06T11:17:55.120Z,36.72
2018-08-06T11:18:55.307Z,36.11
2018-08-06T11:19:55.484Z,36.41
2018-08-06T11:20:55.678Z,37.09
2018-08-06T11:21:55.869Z,36.13
2018-08-06T11:22:56.065Z,36.52
2018-08-06T11:23:56.250Z,38.01
2018-08-06T11:24:56.451Z,37.24
2018-08-06T11:25:56.656Z,36.94
2018-08-06T11:26:56.854Z,36.94
2018-08-06T11:27:57.049Z,36.16
2018-08-06T11:28:57.239Z,36.46
2018-08-06T11:29:57.427Z,35.19
2018-08-06T11:30:57.604Z,35.87
2018-08-06T11:31:57.823Z,34.52
2018-08-06T11:32:58.008Z,34.33
2018-08-06T11:33:58.200Z,34.62
2018-08-06T11:34:58.398Z,35.21
2018-08-06T11:35:58.579Z,35.32
2018-08-06T11:36:58.770Z,36.18
2018-08-06T11:37:58.962Z,35.61
2018-08-06T11:38:59.154Z,34.42
2018-08-06T11:39:59.344Z,34.68
2018-08-06T11:40:59.538Z,36.46
2018-08-06T11:41:59.746Z,35.36
2018-08-06T11:42:59.989Z,35.55
2018-08-06T11:44:00.188Z,35.63
2018-08-06T11:45:00.397Z,36.02
2018-08-06T11:46:00.565Z,38.28
2018-08-06T11:47:00.776Z,35.84
2018-08-06T11:48:00.973Z,36.23
2018-08-06T11:49:01.165Z,34.88
2018-08-06T11:50:01.368Z,35.45
2018-08-06T11:51:01.596Z,36.04
2018-08-06T11:52:01.787Z,36.23
2018-08-06T11:53:02.039Z,36.04
2018-08-06T11:54:02.240Z,35.84
2018-08-06T11:55:02.426Z,35.45
2018-08-06T11:56:02.626Z,35.55
2018-08-06T11:57:02.819Z,36.91
2018-08-06T11:58:03.007Z,35.84
2018-08-06T12:00:45.956Z,36.83
2018-08-06T12:01:46.148Z,36.94
2018-08-06T12:02:46.328Z,35.48
2018-08-06T12:03:46.522Z,36.94
2018-08-06T12:04:46.709Z,35.01
2018-08-06T12:05:46.884Z,35.50
2018-08-06T12:06:47.130Z,34.54
2018-08-06T12:07:47.323Z,34.24
2018-08-06T12:08:47.518Z,33.07
2018-08-06T12:09:47.711Z,32.48
2018-08-06T12:10:47.908Z,33.07
2018-08-06T12:11:48.114Z,32.78
2018-08-06T12:12:48.345Z,32.30
2018-08-06T12:13:48.546Z,32.99
2018-08-06T12:14:48.743Z,33.09
2018-08-06T12:15:48.943Z,33.00
2018-08-06T12:16:49.137Z,31.44
2018-08-06T12:17:49.331Z,30.94
2018-08-06T12:18:49.529Z,32.32
2018-08-06T12:19:49.732Z,33.50
2018-08-06T12:20:49.941Z,31.73
2018-08-06T12:21:50.118Z,31.34
2018-08-06T12:22:50.323Z,33.51
2018-08-06T12:23:50.513Z,33.22
2018-08-06T12:24:50.709Z,34.61
2018-08-06T12:25:51.032Z,32.06
2018-08-06T12:26:51.095Z,31.27
2018-08-06T12:27:51.286Z,30.96
2018-08-06T12:28:51.483Z,32.63
2018-08-06T12:29:51.688Z,32.04
2018-08-06T12:30:51.880Z,32.35
2018-08-06T12:31:52.093Z,32.35
2018-08-06T12:32:52.270Z,32.94
2018-08-06T12:33:52.473Z,31.26
2018-08-06T12:34:52.707Z,31.62
2018-08-06T12:35:52.928Z,33.38
2018-08-06T12:36:53.159Z,32.89
2018-08-06T12:37:53.344Z,32.48
2018-08-06T12:38:53.555Z,32.79
2018-08-06T12:39:53.754Z,32.89
2018-08-06T12:40:53.972Z,32.30
2018-08-06T12:41:54.165Z,32.50
2018-08-06T12:42:54.375Z,32.79
2018-08-06T12:43:54.564Z,32.81
2018-08-06T12:44:54.764Z,34.77
2018-08-06T12:45:54.964Z,31.14
2018-08-06T12:46:55.165Z,32.30
2018-08-06T12:47:55.358Z,31.23
2018-08-06T12:48:55.550Z,31.91
2018-08-06T12:49:55.758Z,34.26
2018-08-06T12:50:55.968Z,32.79
2018-08-06T12:51:56.162Z,33.28
2018-08-06T12:52:56.370Z,32.90
2018-08-06T12:53:56.568Z,33.98
2018-08-06T12:54:56.767Z,31.62
2018-08-06T12:55:56.964Z,32.32
2018-08-06T12:56:57.169Z,32.12
2018-08-06T12:57:57.363Z,32.61
2018-08-06T12:58:57.558Z,33.09
2018-08-06T12:59:57.754Z,34.91
2018-08-06T13:00:57.943Z,33.17
2018-08-06T13:01:58.148Z,32.78
2018-08-06T13:02:58.362Z,32.95
2018-08-06T13:03:58.559Z,33.04
2018-08-06T13:04:58.803Z,33.74
2018-08-06T13:05:58.946Z,33.17
2018-08-06T13:06:59.133Z,33.17